Startpagina
METAR-TAF:

METAR-TAF

Vliegvelden :

Luchthaven Seychellen

Victoria, Mahé, Seychellen

breedte: 04-40S, lengte: 055-31E, hoogte: 3 m

Actueel weer

Dit bericht is 52 minuten geleden gemaakt, om 21:00 UTC
Wind 4 kt uit het zuidzuidoosten, variërend tussen het oostzuidoosten en het zuiden
Temperatuur 28°C
Vochtigheid 84%
Druk 1010 hPa
Zicht 10 km of meer
Weinig wolken op 2100 ft

METAR: FSIA 232100Z 15004KT 120V180 9999 FEW021 28/25 Q1010 NOSIG

Tijdstip: 01:52 (21:52 UTC)

Verwachting

Dit bericht is 4 uur en het 49 minuten geleden gemaakt, om 17:03 UTC
Verwachting geldig van 23 om 18 UTC tot 24 om 18 UTC
Wind 5 kt uit het zuidoosten
Zicht 10 km of meer
Weinig wolken op 1800 ft, Cumulonimbus.
Verspreide wolken op 2200 ft

TAF: FSIA 231703Z 2318/2418 13005KT 9999 FEW018CB SCT022

Waarnemingen en weersverwachtingen van meer dan 4000 vliegvelden (METAR en TAF).

De beschikbare stations zijn de gele en rode punten op de kaart.

Ga met uw muis naar het station om de naam te zien.

Klik dan om waarnemingen en weersverwachtingen te zien.

kaart wijzigen: klik op de groene knoppen met een zwart kruis om in te zoomen, op de groene knop met een streepje om uit te zoomen of op de groene pijlen voor aangrenzende kaarten.


METAR-TAF: